sensor_id;sensor_type;location;lat;lon;timestamp;pressure;altitude;pressure_sealevel;temperature;humidity
83023;BME280;72838;51.820;4.260;2023-12-04T00:00:49;101202.44;;;1.35;96.17
83023;BME280;72838;51.820;4.260;2023-12-04T00:03:14;101268.69;;;1.74;96.60
83023;BME280;72838;51.820;4.260;2023-12-04T00:05:42;101243.88;;;1.87;95.22
83023;BME280;72838;51.820;4.260;2023-12-04T00:08:08;101241.91;;;1.92;94.65
83023;BME280;72838;51.820;4.260;2023-12-04T00:10:36;101210.31;;;1.68;94.49
83023;BME280;72838;51.820;4.260;2023-12-04T00:13:04;101234.81;;;1.78;95.49
83023;BME280;72838;51.820;4.260;2023-12-04T00:15:29;101215.66;;;1.65;94.89
83023;BME280;72838;51.820;4.260;2023-12-04T00:17:55;101185.91;;;1.56;95.65
83023;BME280;72838;51.820;4.260;2023-12-04T00:20:20;101131.34;;;1.27;94.41
83023;BME280;72838;51.820;4.260;2023-12-04T00:22:45;101217.25;;;1.85;95.47
83023;BME280;72838;51.820;4.260;2023-12-04T00:25:27;101024.59;;;0.38;94.83
83023;BME280;72838;51.820;4.260;2023-12-04T00:27:57;101127.03;;;1.27;94.98
83023;BME280;72838;51.820;4.260;2023-12-04T00:30:22;100962.38;;;0.08;94.81
83023;BME280;72838;51.820;4.260;2023-12-04T00:33:00;101004.72;;;0.40;96.09
83023;BME280;72838;51.820;4.260;2023-12-04T00:35:27;101102.91;;;1.10;95.57
83023;BME280;72838;51.820;4.260;2023-12-04T00:37:53;101227.34;;;1.72;95.83
83023;BME280;72838;51.820;4.260;2023-12-04T00:40:21;100946.47;;;-0.20;95.57
83023;BME280;72838;51.820;4.260;2023-12-04T00:42:57;101069.00;;;0.63;94.93
83023;BME280;72838;51.820;4.260;2023-12-04T00:45:23;101104.06;;;1.21;95.65
83023;BME280;72838;51.820;4.260;2023-12-04T00:47:48;101020.13;;;0.77;95.17
83023;BME280;72838;51.820;4.260;2023-12-04T00:50:14;101110.78;;;1.25;94.85
83023;BME280;72838;51.820;4.260;2023-12-04T00:53:15;101052.03;;;0.76;95.06
83023;BME280;72838;51.820;4.260;2023-12-04T00:55:36;100920.13;;;0.11;94.72
83023;BME280;72838;51.820;4.260;2023-12-04T00:58:02;101183.25;;;1.75;95.52
83023;BME280;72838;51.820;4.260;2023-12-04T01:00:28;101138.16;;;1.46;95.40
83023;BME280;72838;51.820;4.260;2023-12-04T01:02:53;101188.66;;;1.71;96.21
83023;BME280;72838;51.820;4.260;2023-12-04T01:05:19;101055.94;;;1.02;95.36
83023;BME280;72838;51.820;4.260;2023-12-04T01:07:47;101110.56;;;1.30;96.70
83023;BME280;72838;51.820;4.260;2023-12-04T01:10:15;101164.22;;;1.76;95.55
83023;BME280;72838;51.820;4.260;2023-12-04T01:12:43;101082.25;;;1.27;95.23
83023;BME280;72838;51.820;4.260;2023-12-04T01:15:09;100952.78;;;0.47;95.60
83023;BME280;72838;51.820;4.260;2023-12-04T01:17:35;101156.13;;;1.84;94.61
83023;BME280;72838;51.820;4.260;2023-12-04T01:20:00;101136.41;;;1.64;94.78
83023;BME280;72838;51.820;4.260;2023-12-04T01:22:25;101121.66;;;1.66;95.00
83023;BME280;72838;51.820;4.260;2023-12-04T01:24:51;101035.47;;;1.16;94.02
83023;BME280;72838;51.820;4.260;2023-12-04T01:27:22;101131.22;;;1.81;93.88
83023;BME280;72838;51.820;4.260;2023-12-04T01:29:48;101066.78;;;1.44;93.09
83023;BME280;72838;51.820;4.260;2023-12-04T01:32:13;101132.69;;;1.70;92.59
83023;BME280;72838;51.820;4.260;2023-12-04T01:34:45;101130.03;;;1.88;92.39
83023;BME280;72838;51.820;4.260;2023-12-04T01:37:10;101121.66;;;1.83;93.20
83023;BME280;72838;51.820;4.260;2023-12-04T01:39:36;101086.38;;;1.65;91.82
83023;BME280;72838;51.820;4.260;2023-12-04T01:42:02;100956.75;;;0.71;91.91
83023;BME280;72838;51.820;4.260;2023-12-04T01:44:49;101109.34;;;1.71;91.66
83023;BME280;72838;51.820;4.260;2023-12-04T01:50:31;101023.91;;;1.40;90.96
83023;BME280;72838;51.820;4.260;2023-12-04T01:52:56;101042.91;;;1.39;90.64
83023;BME280;72838;51.820;4.260;2023-12-04T01:55:22;101099.84;;;1.72;91.97
83023;BME280;72838;51.820;4.260;2023-12-04T01:57:50;101006.75;;;1.22;92.01
83023;BME280;72838;51.820;4.260;2023-12-04T02:00:16;101108.31;;;1.91;90.63
83023;BME280;72838;51.820;4.260;2023-12-04T02:02:47;101074.88;;;1.53;91.34
83023;BME280;72838;51.820;4.260;2023-12-04T02:05:12;101094.38;;;1.78;90.50
83023;BME280;72838;51.820;4.260;2023-12-04T02:07:40;101007.50;;;1.24;90.78
83023;BME280;72838;51.820;4.260;2023-12-04T02:10:06;101091.59;;;1.81;91.90
83023;BME280;72838;51.820;4.260;2023-12-04T02:12:32;101002.94;;;0.95;92.27
83023;BME280;72838;51.820;4.260;2023-12-04T02:15:19;100921.97;;;0.61;92.30
83023;BME280;72838;51.820;4.260;2023-12-04T02:17:49;100934.06;;;0.78;91.88
83023;BME280;72838;51.820;4.260;2023-12-04T02:20:15;100939.88;;;0.64;92.45
83023;BME280;72838;51.820;4.260;2023-12-04T02:22:44;101076.56;;;1.72;92.96
83023;BME280;72838;51.820;4.260;2023-12-04T02:25:18;100939.44;;;0.73;92.01
83023;BME280;72838;51.820;4.260;2023-12-04T02:27:50;100999.91;;;0.87;91.72
83023;BME280;72838;51.820;4.260;2023-12-04T02:30:17;100967.69;;;0.76;91.87
83023;BME280;72838;51.820;4.260;2023-12-04T02:32:46;101073.38;;;1.67;92.38
83023;BME280;72838;51.820;4.260;2023-12-04T02:35:16;101004.38;;;1.34;92.11
83023;BME280;72838;51.820;4.260;2023-12-04T02:37:45;100856.31;;;0.33;91.88
83023;BME280;72838;51.820;4.260;2023-12-04T02:40:13;101033.41;;;1.39;92.55
83023;BME280;72838;51.820;4.260;2023-12-04T02:42:39;101054.44;;;1.66;92.80
83023;BME280;72838;51.820;4.260;2023-12-04T02:45:05;101021.22;;;1.41;91.70
83023;BME280;72838;51.820;4.260;2023-12-04T02:47:33;100964.88;;;1.15;91.46
83023;BME280;72838;51.820;4.260;2023-12-04T02:49:59;101042.03;;;1.73;89.87
83023;BME280;72838;51.820;4.260;2023-12-04T02:52:24;100987.56;;;1.43;89.85
83023;BME280;72838;51.820;4.260;2023-12-04T02:54:49;101001.06;;;1.65;89.03
83023;BME280;72838;51.820;4.260;2023-12-04T02:57:15;101043.16;;;1.84;89.04
83023;BME280;72838;51.820;4.260;2023-12-04T02:59:40;100951.31;;;1.44;88.42
83023;BME280;72838;51.820;4.260;2023-12-04T03:02:08;100972.41;;;1.70;88.91
83023;BME280;72838;51.820;4.260;2023-12-04T03:04:34;101010.22;;;1.88;88.88
83023;BME280;72838;51.820;4.260;2023-12-04T03:07:00;100996.69;;;1.83;88.24
83023;BME280;72838;51.820;4.260;2023-12-04T03:09:27;100984.63;;;1.66;86.92
83023;BME280;72838;51.820;4.260;2023-12-04T03:11:52;100862.41;;;1.16;87.21
83023;BME280;72838;51.820;4.260;2023-12-04T03:14:17;100990.84;;;1.95;86.26
83023;BME280;72838;51.820;4.260;2023-12-04T03:16:49;100968.13;;;1.69;87.34
83023;BME280;72838;51.820;4.260;2023-12-04T03:19:14;100967.56;;;1.79;86.42
83023;BME280;72838;51.820;4.260;2023-12-04T03:21:40;100904.47;;;1.50;86.20
83023;BME280;72838;51.820;4.260;2023-12-04T03:24:05;100974.84;;;1.88;86.13
83023;BME280;72838;51.820;4.260;2023-12-04T03:26:30;100941.72;;;1.46;85.66
83023;BME280;72838;51.820;4.260;2023-12-04T03:28:56;100936.28;;;1.84;85.08
83023;BME280;72838;51.820;4.260;2023-12-04T03:31:23;100924.19;;;1.69;85.08
83023;BME280;72838;51.820;4.260;2023-12-04T03:33:48;100960.56;;;1.97;86.35
83023;BME280;72838;51.820;4.260;2023-12-04T03:36:13;100944.13;;;1.82;85.00
83023;BME280;72838;51.820;4.260;2023-12-04T03:38:39;100925.19;;;1.82;86.58
83023;BME280;72838;51.820;4.260;2023-12-04T03:41:04;100948.47;;;1.97;85.09
83023;BME280;72838;51.820;4.260;2023-12-04T03:43:29;100868.56;;;1.29;84.23
83023;BME280;72838;51.820;4.260;2023-12-04T03:45:55;100894.31;;;1.79;84.47
83023;BME280;72838;51.820;4.260;2023-12-04T03:48:20;100865.47;;;1.55;84.59
83023;BME280;72838;51.820;4.260;2023-12-04T03:50:45;100902.34;;;1.90;84.49
83023;BME280;72838;51.820;4.260;2023-12-04T03:53:12;100905.16;;;1.85;84.88
83023;BME280;72838;51.820;4.260;2023-12-04T03:55:37;100872.13;;;1.75;84.73
83023;BME280;72838;51.820;4.260;2023-12-04T03:58:03;100876.41;;;1.76;84.48
83023;BME280;72838;51.820;4.260;2023-12-04T04:00:28;100917.34;;;1.99;84.35
83023;BME280;72838;51.820;4.260;2023-12-04T04:02:56;100912.69;;;2.05;83.09
83023;BME280;72838;51.820;4.260;2023-12-04T04:05:24;100848.88;;;1.75;83.83
83023;BME280;72838;51.820;4.260;2023-12-04T04:07:50;100901.41;;;2.06;82.75
83023;BME280;72838;51.820;4.260;2023-12-04T04:10:15;100847.38;;;1.71;83.49
83023;BME280;72838;51.820;4.260;2023-12-04T04:12:41;100899.59;;;2.08;83.64
83023;BME280;72838;51.820;4.260;2023-12-04T04:15:06;100897.84;;;2.09;82.89
83023;BME280;72838;51.820;4.260;2023-12-04T04:17:35;100835.94;;;1.75;81.98
83023;BME280;72838;51.820;4.260;2023-12-04T04:20:00;100898.59;;;2.11;82.64
83023;BME280;72838;51.820;4.260;2023-12-04T04:22:28;100877.94;;;2.09;81.29
83023;BME280;72838;51.820;4.260;2023-12-04T04:24:54;100885.31;;;2.17;81.79
83023;BME280;72838;51.820;4.260;2023-12-04T04:27:20;100825.25;;;1.81;80.47
83023;BME280;72838;51.820;4.260;2023-12-04T04:29:45;100822.66;;;1.81;80.99
83023;BME280;72838;51.820;4.260;2023-12-04T04:32:10;100719.31;;;1.18;81.03
83023;BME280;72838;51.820;4.260;2023-12-04T04:34:36;100883.22;;;2.23;80.96
83023;BME280;72838;51.820;4.260;2023-12-04T04:37:04;100817.25;;;1.85;80.19
83023;BME280;72838;51.820;4.260;2023-12-04T04:39:29;100811.81;;;1.74;80.36
83023;BME280;72838;51.820;4.260;2023-12-04T04:41:55;100871.03;;;2.25;80.65
83023;BME280;72838;51.820;4.260;2023-12-04T04:44:20;100868.59;;;2.22;82.20
83023;BME280;72838;51.820;4.260;2023-12-04T04:46:48;100814.16;;;1.79;83.84
83023;BME280;72838;51.820;4.260;2023-12-04T04:49:14;100863.13;;;2.13;83.91
83023;BME280;72838;51.820;4.260;2023-12-04T04:51:39;100801.22;;;1.79;83.48
83023;BME280;72838;51.820;4.260;2023-12-04T04:54:04;100820.00;;;1.82;84.60
83023;BME280;72838;51.820;4.260;2023-12-04T04:56:30;100856.16;;;2.13;82.86
83023;BME280;72838;51.820;4.260;2023-12-04T04:58:55;100850.94;;;2.15;83.94
83023;BME280;72838;51.820;4.260;2023-12-04T05:01:21;100777.41;;;1.74;84.61
83023;BME280;72838;51.820;4.260;2023-12-04T05:03:48;100845.50;;;2.04;85.48
83023;BME280;72838;51.820;4.260;2023-12-04T05:06:14;100844.59;;;2.05;84.10
83023;BME280;72838;51.820;4.260;2023-12-04T05:08:42;100830.34;;;1.98;84.22
83023;BME280;72838;51.820;4.260;2023-12-04T05:11:07;100823.75;;;1.77;84.93
83023;BME280;72838;51.820;4.260;2023-12-04T05:13:33;100829.09;;;1.89;86.04
83023;BME280;72838;51.820;4.260;2023-12-04T05:15:58;100833.75;;;1.98;85.85
83023;BME280;72838;51.820;4.260;2023-12-04T05:18:23;100833.75;;;1.98;85.37
83023;BME280;72838;51.820;4.260;2023-12-04T05:20:49;100811.16;;;1.86;84.16
83023;BME280;72838;51.820;4.260;2023-12-04T05:23:14;100837.09;;;2.00;84.70
83023;BME280;72838;51.820;4.260;2023-12-04T05:25:39;100826.09;;;1.81;83.71
83023;BME280;72838;51.820;4.260;2023-12-04T05:28:05;100846.66;;;2.14;83.50
83023;BME280;72838;51.820;4.260;2023-12-04T05:30:30;100847.41;;;2.16;83.66
83023;BME280;72838;51.820;4.260;2023-12-04T05:32:56;100717.72;;;1.31;84.72
83023;BME280;72838;51.820;4.260;2023-12-04T05:35:23;100730.22;;;1.39;84.75
83023;BME280;72838;51.820;4.260;2023-12-04T05:37:48;100818.31;;;1.97;82.94
83023;BME280;72838;51.820;4.260;2023-12-04T05:40:14;100816.81;;;2.08;83.71
83023;BME280;72838;51.820;4.260;2023-12-04T05:42:40;100827.72;;;2.13;84.24
83023;BME280;72838;51.820;4.260;2023-12-04T05:45:05;100824.97;;;2.01;84.46
83023;BME280;72838;51.820;4.260;2023-12-04T05:47:32;100759.75;;;1.80;83.45
83023;BME280;72838;51.820;4.260;2023-12-04T05:49:58;100780.88;;;1.88;83.29
83023;BME280;72838;51.820;4.260;2023-12-04T05:52:23;100802.53;;;2.01;83.45
83023;BME280;72838;51.820;4.260;2023-12-04T05:54:51;100791.94;;;2.06;83.93
83023;BME280;72838;51.820;4.260;2023-12-04T05:57:16;100807.50;;;2.20;82.92
83023;BME280;72838;51.820;4.260;2023-12-04T05:59:42;100772.44;;;2.00;82.75
83023;BME280;72838;51.820;4.260;2023-12-04T06:02:07;100797.25;;;2.18;82.80
83023;BME280;72838;51.820;4.260;2023-12-04T06:04:33;100732.00;;;1.84;82.85
83023;BME280;72838;51.820;4.260;2023-12-04T06:07:01;100765.22;;;2.05;82.63
83023;BME280;72838;51.820;4.260;2023-12-04T06:09:26;100753.63;;;1.97;82.53
83023;BME280;72838;51.820;4.260;2023-12-04T06:11:55;100759.66;;;1.97;83.00
83023;BME280;72838;51.820;4.260;2023-12-04T06:14:20;100778.28;;;2.18;82.29
83023;BME280;72838;51.820;4.260;2023-12-04T06:16:45;100778.25;;;2.04;82.94
83023;BME280;72838;51.820;4.260;2023-12-04T06:19:11;100784.16;;;2.21;81.58
83023;BME280;72838;51.820;4.260;2023-12-04T06:21:36;100776.81;;;2.14;82.07
83023;BME280;72838;51.820;4.260;2023-12-04T06:24:04;100781.06;;;2.15;81.05
83023;BME280;72838;51.820;4.260;2023-12-04T06:26:31;100776.38;;;2.21;82.15
83023;BME280;72838;51.820;4.260;2023-12-04T06:28:57;100727.22;;;1.92;82.36
83023;BME280;72838;51.820;4.260;2023-12-04T06:31:23;100690.31;;;1.74;82.32
83023;BME280;72838;51.820;4.260;2023-12-04T06:33:48;100782.59;;;2.33;80.86
83023;BME280;72838;51.820;4.260;2023-12-04T06:36:17;100771.94;;;2.23;81.77
83023;BME280;72838;51.820;4.260;2023-12-04T06:38:46;100765.47;;;2.30;81.10
83023;BME280;72838;51.820;4.260;2023-12-04T06:41:12;100755.72;;;2.35;80.45
83023;BME280;72838;51.820;4.260;2023-12-04T06:43:38;100761.44;;;2.40;80.69
83023;BME280;72838;51.820;4.260;2023-12-04T06:46:04;100706.75;;;2.03;80.58
83023;BME280;72838;51.820;4.260;2023-12-04T06:48:31;100671.53;;;1.86;80.89
83023;BME280;72838;51.820;4.260;2023-12-04T06:50:56;100573.16;;;1.14;80.35
83023;BME280;72838;51.820;4.260;2023-12-04T06:53:21;100660.69;;;1.80;80.19
83023;BME280;72838;51.820;4.260;2023-12-04T06:55:47;100753.94;;;2.36;81.75
83023;BME280;72838;51.820;4.260;2023-12-04T06:58:12;100744.69;;;2.32;80.28
83023;BME280;72838;51.820;4.260;2023-12-04T07:00:38;100730.50;;;2.09;81.78
83023;BME280;72838;51.820;4.260;2023-12-04T07:03:03;100747.47;;;2.29;81.69
83023;BME280;72838;51.820;4.260;2023-12-04T07:05:29;100675.84;;;1.86;80.20
83023;BME280;72838;51.820;4.260;2023-12-04T07:07:55;100702.63;;;2.14;80.69
83023;BME280;72838;51.820;4.260;2023-12-04T07:10:20;100754.78;;;2.36;81.91
83023;BME280;72838;51.820;4.260;2023-12-04T07:12:46;100710.16;;;2.03;81.21
83023;BME280;72838;51.820;4.260;2023-12-04T07:15:11;100715.81;;;2.10;80.60
83023;BME280;72838;51.820;4.260;2023-12-04T07:17:37;100696.59;;;2.14;80.48
83023;BME280;72838;51.820;4.260;2023-12-04T07:20:03;100695.00;;;2.11;81.23
83023;BME280;72838;51.820;4.260;2023-12-04T07:22:31;100731.38;;;2.38;80.08
83023;BME280;72838;51.820;4.260;2023-12-04T07:24:58;100567.44;;;1.39;80.02
83023;BME280;72838;51.820;4.260;2023-12-04T07:27:23;100706.94;;;2.14;81.19
83023;BME280;72838;51.820;4.260;2023-12-04T07:29:49;100724.94;;;2.45;79.25
83023;BME280;72838;51.820;4.260;2023-12-04T07:32:14;100730.47;;;2.39;80.17
83023;BME280;72838;51.820;4.260;2023-12-04T07:34:39;100694.47;;;2.06;80.86
83023;BME280;72838;51.820;4.260;2023-12-04T07:37:05;100728.41;;;2.30;80.56
83023;BME280;72838;51.820;4.260;2023-12-04T07:39:30;100712.13;;;2.28;80.48
83023;BME280;72838;51.820;4.260;2023-12-04T07:41:58;100719.47;;;2.35;81.30
83023;BME280;72838;51.820;4.260;2023-12-04T07:44:23;100721.78;;;2.40;80.98
83023;BME280;72838;51.820;4.260;2023-12-04T07:46:50;100733.63;;;2.44;81.15
83023;BME280;72838;51.820;4.260;2023-12-04T07:49:15;100714.38;;;2.34;80.64
83023;BME280;72838;51.820;4.260;2023-12-04T07:51:41;100735.19;;;2.46;81.10
83023;BME280;72838;51.820;4.260;2023-12-04T07:54:06;100737.22;;;2.56;81.82
83023;BME280;72838;51.820;4.260;2023-12-04T07:56:35;100733.06;;;2.53;80.59
83023;BME280;72838;51.820;4.260;2023-12-04T07:59:00;100686.25;;;2.28;80.11
83023;BME280;72838;51.820;4.260;2023-12-04T08:01:26;100725.28;;;2.53;80.35
83023;BME280;72838;51.820;4.260;2023-12-04T08:03:51;100738.22;;;2.39;80.38
83023;BME280;72838;51.820;4.260;2023-12-04T08:06:16;100724.47;;;2.53;80.50
83023;BME280;72838;51.820;4.260;2023-12-04T08:08:44;100717.44;;;2.55;79.35
83023;BME280;72838;51.820;4.260;2023-12-04T08:11:10;100719.38;;;2.51;79.83
83023;BME280;72838;51.820;4.260;2023-12-04T08:13:35;100708.84;;;2.54;80.45
83023;BME280;72838;51.820;4.260;2023-12-04T08:16:02;100628.50;;;1.99;80.57
83023;BME280;72838;51.820;4.260;2023-12-04T08:18:28;100713.84;;;2.57;79.76
83023;BME280;72838;51.820;4.260;2023-12-04T08:20:53;100691.91;;;2.48;80.01
83023;BME280;72838;51.820;4.260;2023-12-04T08:23:18;100702.28;;;2.63;79.78
83023;BME280;72838;51.820;4.260;2023-12-04T08:25:45;100696.81;;;2.53;80.16
83023;BME280;72838;51.820;4.260;2023-12-04T08:28:10;100704.50;;;2.55;79.78
83023;BME280;72838;51.820;4.260;2023-12-04T08:30:42;100713.19;;;2.54;80.33
83023;BME280;72838;51.820;4.260;2023-12-04T08:33:19;100673.78;;;2.48;79.98
83023;BME280;72838;51.820;4.260;2023-12-04T08:35:45;100697.56;;;2.55;79.71
83023;BME280;72838;51.820;4.260;2023-12-04T08:38:11;100654.56;;;2.38;79.76
83023;BME280;72838;51.820;4.260;2023-12-04T08:40:36;100665.28;;;2.46;80.33
83023;BME280;72838;51.820;4.260;2023-12-04T08:43:01;100670.84;;;2.55;80.06
83023;BME280;72838;51.820;4.260;2023-12-04T08:45:29;100580.38;;;2.11;78.89
83023;BME280;72838;51.820;4.260;2023-12-04T08:47:54;100672.97;;;2.62;78.82
83023;BME280;72838;51.820;4.260;2023-12-04T08:50:20;100548.78;;;1.78;80.13
83023;BME280;72838;51.820;4.260;2023-12-04T08:52:46;100662.06;;;2.57;79.25
83023;BME280;72838;51.820;4.260;2023-12-04T08:55:14;100658.34;;;2.61;79.70
83023;BME280;72838;51.820;4.260;2023-12-04T08:57:39;100606.25;;;2.25;80.43
83023;BME280;72838;51.820;4.260;2023-12-04T09:00:05;100628.03;;;2.49;79.17
83023;BME280;72838;51.820;4.260;2023-12-04T09:02:33;100655.22;;;2.70;77.65
83023;BME280;72838;51.820;4.260;2023-12-04T09:04:58;100627.03;;;2.52;77.96
83023;BME280;72838;51.820;4.260;2023-12-04T09:07:24;100652.72;;;2.69;77.91
83023;BME280;72838;51.820;4.260;2023-12-04T09:09:49;100640.91;;;2.65;77.30
83023;BME280;72838;51.820;4.260;2023-12-04T09:12:15;100667.59;;;2.79;78.11
83023;BME280;72838;51.820;4.260;2023-12-04T09:14:40;100635.88;;;2.62;78.11
83023;BME280;72838;51.820;4.260;2023-12-04T09:17:10;100586.75;;;2.33;77.39
83023;BME280;72838;51.820;4.260;2023-12-04T09:19:35;100598.81;;;2.47;78.48
83023;BME280;72838;51.820;4.260;2023-12-04T09:22:03;100657.31;;;2.78;78.24
83023;BME280;72838;51.820;4.260;2023-12-04T09:24:29;100647.22;;;2.73;77.98
83023;BME280;72838;51.820;4.260;2023-12-04T09:26:56;100676.19;;;2.80;78.73
83023;BME280;72838;51.820;4.260;2023-12-04T09:29:24;100619.72;;;2.58;77.96
83023;BME280;72838;51.820;4.260;2023-12-04T09:31:51;100611.88;;;2.45;78.56
83023;BME280;72838;51.820;4.260;2023-12-04T09:34:17;100654.28;;;2.85;78.12
83023;BME280;72838;51.820;4.260;2023-12-04T09:36:46;100638.81;;;2.84;78.03
83023;BME280;72838;51.820;4.260;2023-12-04T09:39:13;100585.78;;;2.48;78.37
83023;BME280;72838;51.820;4.260;2023-12-04T09:41:40;100605.16;;;2.70;78.06
83023;BME280;72838;51.820;4.260;2023-12-04T09:44:07;100518.00;;;2.15;76.75
83023;BME280;72838;51.820;4.260;2023-12-04T09:46:34;100638.88;;;2.96;77.38
83023;BME280;72838;51.820;4.260;2023-12-04T09:48:59;100625.25;;;3.07;77.86
83023;BME280;72838;51.820;4.260;2023-12-04T09:51:27;100624.78;;;3.00;76.72
83023;BME280;72838;51.820;4.260;2023-12-04T09:53:53;100613.63;;;3.00;78.52
83023;BME280;72838;51.820;4.260;2023-12-04T09:56:22;100592.09;;;2.85;77.65
83023;BME280;72838;51.820;4.260;2023-12-04T09:58:52;100587.91;;;2.97;76.45
83023;BME280;72838;51.820;4.260;2023-12-04T10:01:18;100614.16;;;3.05;78.15
83023;BME280;72838;51.820;4.260;2023-12-04T10:03:44;100512.91;;;2.55;77.90
83023;BME280;72838;51.820;4.260;2023-12-04T10:06:11;100552.41;;;2.85;77.30
83023;BME280;72838;51.820;4.260;2023-12-04T10:08:40;100607.38;;;3.16;77.10
83023;BME280;72838;51.820;4.260;2023-12-04T10:11:05;100606.03;;;3.23;76.83
83023;BME280;72838;51.820;4.260;2023-12-04T10:13:31;100577.47;;;3.11;76.73
83023;BME280;72838;51.820;4.260;2023-12-04T10:15:56;100507.84;;;2.80;76.64
83023;BME280;72838;51.820;4.260;2023-12-04T10:18:30;100577.16;;;3.42;76.04
83023;BME280;72838;51.820;4.260;2023-12-04T10:20:57;100576.84;;;3.47;76.35
83023;BME280;72838;51.820;4.260;2023-12-04T10:23:54;100567.00;;;3.39;76.10
83023;BME280;72838;51.820;4.260;2023-12-04T10:26:19;100576.75;;;3.48;76.95
83023;BME280;72838;51.820;4.260;2023-12-04T10:28:59;100532.72;;;3.21;76.52
83023;BME280;72838;51.820;4.260;2023-12-04T10:31:31;100420.97;;;2.22;76.38
83023;BME280;72838;51.820;4.260;2023-12-04T10:33:57;100545.53;;;3.37;76.75
83023;BME280;72838;51.820;4.260;2023-12-04T10:36:22;100561.59;;;3.55;77.13
83023;BME280;72838;51.820;4.260;2023-12-04T10:38:58;100560.59;;;3.57;76.91
83023;BME280;72838;51.820;4.260;2023-12-04T10:41:24;100522.56;;;3.31;78.00
83023;BME280;72838;51.820;4.260;2023-12-04T10:43:53;100506.72;;;3.36;78.54
83023;BME280;72838;51.820;4.260;2023-12-04T10:46:21;100546.78;;;3.69;78.09
83023;BME280;72838;51.820;4.260;2023-12-04T10:48:49;100539.00;;;3.69;78.47
83023;BME280;72838;51.820;4.260;2023-12-04T10:51:17;100425.81;;;2.93;77.90
83023;BME280;72838;51.820;4.260;2023-12-04T10:53:42;100533.28;;;3.64;78.25
83023;BME280;72838;51.820;4.260;2023-12-04T10:56:10;100525.84;;;3.47;79.34
83023;BME280;72838;51.820;4.260;2023-12-04T10:58:41;100496.38;;;3.48;79.98
83023;BME280;72838;51.820;4.260;2023-12-04T11:01:10;100525.84;;;3.60;80.03
83023;BME280;72838;51.820;4.260;2023-12-04T11:03:44;100512.44;;;3.53;80.65
83023;BME280;72838;51.820;4.260;2023-12-04T11:06:11;100526.34;;;3.52;80.43
83023;BME280;72838;51.820;4.260;2023-12-04T11:08:39;100512.44;;;3.41;81.16
83023;BME280;72838;51.820;4.260;2023-12-04T11:11:12;100516.91;;;3.51;81.14
83023;BME280;72838;51.820;4.260;2023-12-04T11:13:44;100513.06;;;3.57;80.71
83023;BME280;72838;51.820;4.260;2023-12-04T11:16:22;100508.84;;;3.56;81.66
83023;BME280;72838;51.820;4.260;2023-12-04T11:18:56;100501.84;;;3.56;81.45
83023;BME280;72838;51.820;4.260;2023-12-04T11:21:26;100494.91;;;3.57;81.88
83023;BME280;72838;51.820;4.260;2023-12-04T11:23:53;100493.47;;;3.65;81.11
83023;BME280;72838;51.820;4.260;2023-12-04T11:26:19;100450.00;;;3.44;81.47
83023;BME280;72838;51.820;4.260;2023-12-04T11:28:45;100464.09;;;3.52;81.84
83023;BME280;72838;51.820;4.260;2023-12-04T11:31:12;100475.84;;;3.70;82.82
83023;BME280;72838;51.820;4.260;2023-12-04T11:33:38;100443.66;;;3.60;81.53
83023;BME280;72838;51.820;4.260;2023-12-04T11:36:11;100420.25;;;3.62;82.89
83023;BME280;72838;51.820;4.260;2023-12-04T11:38:48;100441.06;;;3.73;83.05
83023;BME280;72838;51.820;4.260;2023-12-04T11:41:23;100455.75;;;3.97;82.55
83023;BME280;72838;51.820;4.260;2023-12-04T11:43:49;100460.94;;;3.97;81.89
83023;BME280;72838;51.820;4.260;2023-12-04T11:46:22;100475.59;;;3.98;82.67
83023;BME280;72838;51.820;4.260;2023-12-04T11:48:49;100462.94;;;3.94;82.90
83023;BME280;72838;51.820;4.260;2023-12-04T11:51:45;100424.88;;;3.69;83.19
83023;BME280;72838;51.820;4.260;2023-12-04T11:54:00;100438.28;;;3.76;83.62
83023;BME280;72838;51.820;4.260;2023-12-04T11:56:26;100448.41;;;3.79;83.58
83023;BME280;72838;51.820;4.260;2023-12-04T11:58:52;100446.16;;;3.87;84.49
83023;BME280;72838;51.820;4.260;2023-12-04T12:01:20;100390.69;;;3.52;84.16
83023;BME280;72838;51.820;4.260;2023-12-04T12:03:50;100400.84;;;3.55;85.11
83023;BME280;72838;51.820;4.260;2023-12-04T12:06:16;100421.47;;;3.69;85.78
83023;BME280;72838;51.820;4.260;2023-12-04T12:08:45;100372.13;;;3.58;86.05
83023;BME280;72838;51.820;4.260;2023-12-04T12:11:11;100361.34;;;3.51;86.66
83023;BME280;72838;51.820;4.260;2023-12-04T12:13:40;100405.34;;;3.89;86.53
83023;BME280;72838;51.820;4.260;2023-12-04T12:16:06;100400.06;;;3.90;87.16
83023;BME280;72838;51.820;4.260;2023-12-04T12:18:34;100399.00;;;3.93;87.24
83023;BME280;72838;51.820;4.260;2023-12-04T12:21:00;100310.22;;;3.53;87.17
83023;BME280;72838;51.820;4.260;2023-12-04T12:23:26;100402.22;;;3.96;88.25
83023;BME280;72838;51.820;4.260;2023-12-04T12:25:52;100380.53;;;3.85;88.18
83023;BME280;72838;51.820;4.260;2023-12-04T12:28:23;100397.56;;;3.89;88.41
83023;BME280;72838;51.820;4.260;2023-12-04T12:30:48;100379.56;;;3.98;88.10
83023;BME280;72838;51.820;4.260;2023-12-04T12:33:17;100391.13;;;3.94;87.30
83023;BME280;72838;51.820;4.260;2023-12-04T12:35:42;100384.59;;;3.89;88.46
83023;BME280;72838;51.820;4.260;2023-12-04T12:38:08;100384.47;;;3.90;88.97
83023;BME280;72838;51.820;4.260;2023-12-04T12:40:33;100321.06;;;3.58;88.29
83023;BME280;72838;51.820;4.260;2023-12-04T12:43:06;100352.88;;;3.73;88.24
83023;BME280;72838;51.820;4.260;2023-12-04T12:45:44;100361.38;;;3.75;88.48
83023;BME280;72838;51.820;4.260;2023-12-04T12:48:17;100370.25;;;3.96;88.27
83023;BME280;72838;51.820;4.260;2023-12-04T12:50:51;100366.13;;;3.81;88.32
83023;BME280;72838;51.820;4.260;2023-12-04T12:53:17;100295.44;;;3.30;88.55
83023;BME280;72838;51.820;4.260;2023-12-04T12:55:43;100355.75;;;3.81;88.49
83023;BME280;72838;51.820;4.260;2023-12-04T12:58:12;100325.94;;;3.63;88.55
83023;BME280;72838;51.820;4.260;2023-12-04T13:00:46;100367.38;;;3.88;88.40
83023;BME280;72838;51.820;4.260;2023-12-04T13:03:16;100365.22;;;3.82;88.84